Time;durP1;ratioP1;P1;durP2;ratioP2;P2;SDS_P1;SDS_P2;PMS_P1;PMS_P2;Temp;Humidity;BMP_temperature;BMP_pressure;BME280_temperature;BME280_humidity;BME280_pressure;Samples;Min_cycle;Max_cycle;Signal;HPM_P1;HPM_P2
2023/09/29 00:01:03;;;;;;;3.77;3.47;;;;;;;15.53;100.00;100465.88;4963483;28;20348;-76
2023/09/29 00:03:28;;;;;;;4.00;3.70;;;;;;;15.50;100.00;100463.34;4963697;28;20284;-76
2023/09/29 00:05:53;;;;;;;4.20;3.80;;;;;;;15.48;100.00;100462.56;4957601;28;20193;-78
2023/09/29 00:08:22;;;;;;;3.53;3.23;;;;;;;15.46;100.00;100473.91;4957786;28;20206;-76
2023/09/29 00:10:49;;;;;;;3.63;3.33;;;;;;;15.44;100.00;100466.13;4963471;28;20553;-76
2023/09/29 00:13:15;;;;;;;3.60;3.30;;;;;;;15.41;100.00;100468.81;4965703;28;21153;-77
2023/09/29 00:15:40;;;;;;;3.37;3.07;;;;;;;15.36;100.00;100468.94;4964747;28;20182;-77
2023/09/29 00:18:07;;;;;;;3.20;2.90;;;;;;;15.33;100.00;100470.78;4971376;28;20215;-77
2023/09/29 00:20:33;;;;;;;3.20;3.00;;;;;;;15.32;100.00;100471.69;4966470;28;20209;-76
2023/09/29 00:22:59;;;;;;;3.93;3.63;;;;;;;15.34;100.00;100469.88;4963055;28;20183;-77
2023/09/29 00:25:25;;;;;;;4.17;3.80;;;;;;;15.38;100.00;100466.28;4966842;28;20284;-77
2023/09/29 00:27:51;;;;;;;4.00;3.60;;;;;;;15.38;100.00;100458.47;4963012;28;20249;-77
2023/09/29 00:30:17;;;;;;;3.83;3.50;;;;;;;15.34;100.00;100465.53;4961303;28;20505;-77
2023/09/29 00:32:45;;;;;;;3.50;3.20;;;;;;;15.30;100.00;100466.47;4960892;28;20277;-76
2023/09/29 00:35:11;;;;;;;3.40;3.10;;;;;;;15.28;100.00;100470.88;4968833;28;20187;-77
2023/09/29 00:37:36;;;;;;;3.93;3.63;;;;;;;15.26;100.00;100459.66;4968436;28;20201;-76
2023/09/29 00:40:02;;;;;;;3.77;3.40;;;;;;;15.25;100.00;100463.16;4975522;28;20221;-77
2023/09/29 00:42:27;;;;;;;3.70;3.40;;;;;;;15.26;100.00;100471.81;4977236;28;20182;-77
2023/09/29 00:44:53;;;;;;;3.57;3.27;;;;;;;15.24;100.00;100459.69;4983431;28;20213;-76
2023/09/29 00:47:20;;;;;;;3.63;3.33;;;;;;;15.24;100.00;100464.91;4962537;28;20174;-77
2023/09/29 00:49:48;;;;;;;3.27;2.97;;;;;;;15.23;100.00;100465.78;4960212;28;20300;-76
2023/09/29 00:52:16;;;;;;;5.07;4.23;;;;;;;15.23;100.00;100464.94;4953604;28;20198;-76
2023/09/29 00:54:42;;;;;;;3.87;3.53;;;;;;;15.22;100.00;100460.63;4959881;28;20186;-76
2023/09/29 00:57:07;;;;;;;4.10;3.27;;;;;;;15.19;100.00;100456.34;4964767;28;20824;-76
2023/09/29 00:59:34;;;;;;;3.63;3.40;;;;;;;15.15;100.00;100456.44;4962281;28;20285;-75
2023/09/29 01:02:09;;;;;;;3.97;3.37;;;;;;;15.13;100.00;100455.63;4978556;28;20214;-76
2023/09/29 01:04:34;;;;;;;3.40;3.10;;;;;;;15.12;100.00;100446.97;4966959;28;20181;-77
2023/09/29 01:07:00;;;;;;;3.70;3.27;;;;;;;15.13;100.00;100448.69;4970417;28;20192;-76
2023/09/29 01:09:26;;;;;;;4.33;3.17;;;;;;;15.16;100.00;100445.13;4979822;28;20695;-77
2023/09/29 01:11:52;;;;;;;3.60;3.30;;;;;;;15.21;100.00;100432.84;4966472;28;20182;-76
2023/09/29 01:14:17;;;;;;;3.73;3.43;;;;;;;15.22;100.00;100439.78;4958511;28;20189;-76
2023/09/29 01:16:43;;;;;;;3.70;3.40;;;;;;;15.24;100.00;100438.81;4969066;28;20190;-77
2023/09/29 01:19:14;;;;;;;3.80;3.50;;;;;;;15.26;100.00;100444.00;4968995;28;20353;-77
2023/09/29 01:21:40;;;;;;;3.83;3.53;;;;;;;15.22;100.00;100438.00;4964990;28;20269;-75
2023/09/29 01:24:07;;;;;;;4.03;3.50;;;;;;;15.20;100.00;100447.59;4963642;28;20190;-76
2023/09/29 01:26:32;;;;;;;4.00;3.70;;;;;;;15.16;100.00;100439.91;4959969;28;20200;-74
2023/09/29 01:28:58;;;;;;;3.50;3.20;;;;;;;15.12;100.00;100444.34;4965402;28;20199;-75
2023/09/29 01:31:23;;;;;;;3.87;3.53;;;;;;;15.07;100.00;100439.25;4965703;28;20261;-77
2023/09/29 01:33:48;;;;;;;3.63;3.33;;;;;;;15.04;100.00;100434.13;4965777;28;20659;-76
2023/09/29 01:36:14;;;;;;;3.67;3.40;;;;;;;15.01;100.00;100436.81;4962338;28;20196;-76
2023/09/29 01:38:39;;;;;;;4.03;3.67;;;;;;;14.99;100.00;100430.75;4962359;28;20221;-77
2023/09/29 01:41:04;;;;;;;3.90;3.60;;;;;;;14.95;100.00;100431.75;4962569;28;20296;-78
2023/09/29 01:43:31;;;;;;;4.17;3.80;;;;;;;14.92;100.00;100432.66;4967939;28;20196;-76
2023/09/29 01:45:56;;;;;;;4.00;3.60;;;;;;;14.89;100.00;100437.09;4957385;28;20681;-76
2023/09/29 01:48:22;;;;;;;4.27;3.90;;;;;;;14.86;100.00;100431.97;4966130;28;20271;-76
2023/09/29 01:50:47;;;;;;;4.17;3.50;;;;;;;14.85;100.00;100435.47;4964580;28;20182;-76
2023/09/29 01:53:12;;;;;;;3.80;3.47;;;;;;;14.86;100.00;100430.22;4959655;28;20183;-76
2023/09/29 01:55:39;;;;;;;3.73;3.43;;;;;;;14.89;100.00;100434.50;4960994;28;20264;-76
2023/09/29 01:58:05;;;;;;;3.90;3.60;;;;;;;14.90;100.00;100438.81;4955068;28;20194;-76
2023/09/29 02:00:30;;;;;;;4.77;3.67;;;;;;;14.91;100.00;100441.38;4964513;28;20212;-77
2023/09/29 02:02:55;;;;;;;3.93;3.53;;;;;;;14.96;100.00;100435.19;4965288;28;20222;-76
2023/09/29 02:05:21;;;;;;;3.70;3.40;;;;;;;14.99;100.00;100438.59;4972316;28;20185;-76
2023/09/29 02:07:49;;;;;;;3.73;3.43;;;;;;;15.03;100.00;100437.63;4958583;28;20253;-77
2023/09/29 02:10:21;;;;;;;3.80;3.50;;;;;;;15.08;100.00;100440.97;4962920;28;20214;-76
2023/09/29 02:12:58;;;;;;;3.07;2.87;;;;;;;15.13;100.00;100433.03;4969935;28;20184;-76
2023/09/29 02:15:24;;;;;;;3.77;3.40;;;;;;;15.19;100.00;100437.22;4967268;28;20194;-76
2023/09/29 02:17:50;;;;;;;3.63;3.33;;;;;;;15.23;100.00;100434.50;4969494;28;20186;-76
2023/09/29 02:20:18;;;;;;;3.40;3.10;;;;;;;15.30;100.00;100440.41;4966544;28;20822;-76
2023/09/29 02:22:44;;;;;;;5.03;3.63;;;;;;;15.38;100.00;100446.28;4964778;28;20217;-76
2023/09/29 02:25:15;;;;;;;3.70;3.30;;;;;;;15.44;100.00;100452.22;4969366;28;20191;-76
2023/09/29 02:27:41;;;;;;;3.70;3.40;;;;;;;15.47;100.00;100457.38;4967988;28;20200;-77
2023/09/29 02:30:09;;;;;;;2.93;2.73;;;;;;;15.50;100.00;100452.91;4962848;28;20292;-77
2023/09/29 02:32:39;;;;;;;3.47;2.90;;;;;;;15.51;100.00;100444.19;4960477;28;20192;-77
2023/09/29 02:35:05;;;;;;;3.53;3.23;;;;;;;15.53;100.00;100437.19;4966250;28;20195;-78
2023/09/29 02:37:30;;;;;;;3.80;3.50;;;;;;;15.54;100.00;100420.66;4966589;28;20921;-77
2023/09/29 02:39:55;;;;;;;3.93;3.60;;;;;;;15.55;100.00;100427.56;4982347;28;20213;-78
2023/09/29 02:42:21;;;;;;;3.13;2.93;;;;;;;15.57;100.00;100427.56;4988991;28;20209;-77
2023/09/29 02:44:47;;;;;;;3.40;3.10;;;;;;;15.61;100.00;100423.94;4964092;28;20210;-76
2023/09/29 02:47:14;;;;;;;3.60;3.30;;;;;;;15.62;100.00;100438.69;4954056;28;20189;-76
2023/09/29 02:49:39;;;;;;;3.53;3.20;;;;;;;15.65;100.00;100448.22;4969084;28;20222;-78
2023/09/29 02:52:06;;;;;;;3.63;3.33;;;;;;;15.66;100.00;100450.75;4957888;28;20189;-76
2023/09/29 02:54:31;;;;;;;3.73;3.43;;;;;;;15.69;100.00;100448.06;4956841;28;20207;-79
2023/09/29 02:56:57;;;;;;;3.50;3.20;;;;;;;15.72;100.00;100448.88;4958363;28;20650;-77
2023/09/29 02:59:24;;;;;;;3.13;2.90;;;;;;;15.73;100.00;100450.59;4966460;28;20321;-76
2023/09/29 03:01:49;;;;;;;3.30;3.10;;;;;;;15.76;100.00;100460.94;4964357;28;20540;-76
2023/09/29 03:04:15;;;;;;;4.10;3.70;;;;;;;15.76;100.00;100451.38;4961960;28;20203;-76
2023/09/29 03:06:40;;;;;;;3.77;3.40;;;;;;;15.77;100.00;100458.31;4966969;28;20190;-77
2023/09/29 03:09:10;;;;;;;3.13;2.93;;;;;;;15.78;100.00;100452.19;4962051;28;20209;-77
2023/09/29 03:11:39;;;;;;;3.20;2.97;;;;;;;15.80;100.00;100445.19;4952589;28;20190;-77
2023/09/29 03:14:06;;;;;;;3.50;3.20;;;;;;;15.78;100.00;100441.75;4963869;28;20190;-77
2023/09/29 03:16:32;;;;;;;4.30;3.90;;;;;;;15.78;100.00;100441.75;4967572;28;20201;-77
2023/09/29 03:18:57;;;;;;;3.80;3.50;;;;;;;15.81;100.00;100440.78;4963158;28;20590;-77
2023/09/29 03:21:22;;;;;;;4.03;3.50;;;;;;;15.81;100.00;100436.41;4967905;28;20228;-77
2023/09/29 03:23:48;;;;;;;3.60;3.30;;;;;;;15.81;100.00;100439.03;4964025;28;20240;-77
2023/09/29 03:26:17;;;;;;;3.40;3.10;;;;;;;15.83;100.00;100454.66;4964450;28;20274;-77
2023/09/29 03:28:43;;;;;;;4.20;2.87;;;;;;;15.85;100.00;100451.13;4955421;28;20220;-77
2023/09/29 03:31:09;;;;;;;4.80;3.87;;;;;;;15.87;100.00;100445.88;4963268;28;20182;-76
2023/09/29 03:33:35;;;;;;;4.23;3.40;;;;;;;15.88;100.00;100445.00;4965167;28;20220;-77
2023/09/29 03:36:01;;;;;;;3.53;3.17;;;;;;;15.90;100.00;100452.75;4961563;28;20194;-77
2023/09/29 03:38:26;;;;;;;3.30;3.00;;;;;;;15.92;100.00;100458.78;4959701;28;20213;-77
2023/09/29 03:40:52;;;;;;;4.03;3.60;;;;;;;15.93;100.00;100458.75;4959437;28;20588;-77
2023/09/29 03:43:18;;;;;;;3.37;3.07;;;;;;;15.91;100.00;100457.94;4964571;28;20194;-77
2023/09/29 03:45:46;;;;;;;3.50;3.20;;;;;;;15.92;100.00;100466.63;4959771;28;20939;-77
2023/09/29 03:48:12;;;;;;;3.70;3.40;;;;;;;15.92;100.00;100471.84;4958277;28;20660;-77
2023/09/29 03:50:39;;;;;;;3.97;3.57;;;;;;;15.93;100.00;100455.28;4966556;28;20189;-78
2023/09/29 03:53:05;;;;;;;3.50;3.20;;;;;;;15.94;100.00;100459.63;4961850;28;20653;-76
2023/09/29 03:55:31;;;;;;;3.60;3.30;;;;;;;15.94;100.00;100457.84;4958657;28;20217;-76
2023/09/29 03:57:56;;;;;;;4.33;3.93;;;;;;;15.92;100.00;100464.03;4964373;28;20197;-76
2023/09/29 04:00:21;;;;;;;5.20;4.67;;;;;;;15.90;100.00;100457.97;4964724;28;20771;-77
2023/09/29 04:02:50;;;;;;;4.90;3.87;;;;;;;15.90;100.00;100460.59;4968062;28;20209;-76
2023/09/29 04:05:17;;;;;;;3.87;3.47;;;;;;;15.92;100.00;100461.41;4966368;28;20276;-78
2023/09/29 04:07:43;;;;;;;3.47;3.17;;;;;;;15.93;100.00;100456.13;4971863;28;20181;-77
2023/09/29 04:10:09;;;;;;;3.80;3.50;;;;;;;15.95;100.00;100456.09;4971771;28;20215;-76
2023/09/29 04:12:36;;;;;;;3.43;3.13;;;;;;;15.95;100.00;100461.31;4968995;28;20691;-77
2023/09/29 04:15:01;;;;;;;3.43;3.13;;;;;;;15.97;100.00;100456.88;4969151;28;20197;-77
2023/09/29 04:17:26;;;;;;;4.50;3.50;;;;;;;15.94;100.00;100460.44;4961914;28;20203;-77
2023/09/29 04:19:53;;;;;;;4.13;3.53;;;;;;;15.93;100.00;100453.53;4967092;28;20649;-77
2023/09/29 04:22:19;;;;;;;3.40;3.10;;;;;;;15.92;100.00;100456.19;4964451;28;20901;-76
2023/09/29 04:24:44;;;;;;;3.67;3.37;;;;;;;15.93;100.00;100447.47;4960841;28;20194;-76
2023/09/29 04:27:09;;;;;;;3.37;3.00;;;;;;;15.94;100.00;100452.63;4964052;28;20193;-77
2023/09/29 04:29:35;;;;;;;3.57;3.27;;;;;;;15.95;100.00;100456.94;4957408;28;20692;-77
2023/09/29 04:32:01;;;;;;;3.60;3.17;;;;;;;15.97;100.00;100462.13;4971151;28;20189;-76
2023/09/29 04:34:26;;;;;;;3.40;3.10;;;;;;;15.99;100.00;100470.75;4973484;28;20198;-77
2023/09/29 04:36:53;;;;;;;5.37;3.87;;;;;;;15.99;100.00;100470.75;4954799;28;20195;-77
2023/09/29 04:39:18;;;;;;;3.90;3.60;;;;;;;15.99;100.00;100481.19;4968248;28;20348;-77
2023/09/29 04:41:44;;;;;;;5.80;3.73;;;;;;;15.98;100.00;100484.69;4962307;28;20209;-77
2023/09/29 04:44:10;;;;;;;5.03;4.10;;;;;;;15.98;100.00;100482.09;4962772;28;20183;-77
2023/09/29 04:46:35;;;;;;;4.67;3.70;;;;;;;15.93;100.00;100474.41;4966208;28;20197;-78
2023/09/29 04:49:03;;;;;;;4.30;3.90;;;;;;;15.93;100.00;100484.00;4959174;28;20792;-77
2023/09/29 04:51:32;;;;;;;4.27;3.87;;;;;;;15.93;100.00;100479.63;4958987;28;20186;-77
2023/09/29 04:53:57;;;;;;;4.13;3.73;;;;;;;15.93;100.00;100478.78;4961820;28;20199;-77
2023/09/29 04:56:23;;;;;;;4.10;3.73;;;;;;;15.94;100.00;100477.88;4965318;28;20192;-77
2023/09/29 04:58:48;;;;;;;4.00;3.27;;;;;;;15.95;100.00;100483.03;4974236;28;20684;-77
2023/09/29 05:01:18;;;;;;;3.60;3.30;;;;;;;15.97;100.00;100483.00;4955858;28;20222;-77
2023/09/29 05:03:44;;;;;;;3.20;2.90;;;;;;;15.99;100.00;100483.81;4969553;28;20206;-76
2023/09/29 05:06:09;;;;;;;3.23;2.93;;;;;;;16.00;100.00;100482.91;4973788;28;20221;-76
2023/09/29 05:08:36;;;;;;;3.90;3.60;;;;;;;16.02;100.00;100481.13;4988515;28;20213;-76
2023/09/29 05:11:01;;;;;;;3.80;3.50;;;;;;;16.04;100.00;100476.72;4975829;28;20192;-77
2023/09/29 05:13:32;;;;;;;3.53;3.23;;;;;;;16.06;100.00;100482.75;4987165;28;20200;-76
2023/09/29 05:16:00;;;;;;;3.47;3.20;;;;;;;16.08;100.00;100485.31;4977632;28;20186;-76
2023/09/29 05:18:26;;;;;;;3.53;3.23;;;;;;;16.09;100.00;100476.56;4971844;28;20737;-76
2023/09/29 05:20:51;;;;;;;3.50;3.20;;;;;;;16.08;100.00;100475.72;4961421;28;20214;-78
2023/09/29 05:23:16;;;;;;;3.67;3.30;;;;;;;16.11;100.00;100485.22;4958622;28;20649;-77
2023/09/29 05:25:46;;;;;;;3.07;2.77;;;;;;;16.11;100.00;100475.63;4961229;28;20286;-77
2023/09/29 05:28:12;;;;;;;3.33;3.03;;;;;;;16.13;100.00;100476.44;4964873;28;20247;-78
2023/09/29 05:30:37;;;;;;;3.57;3.10;;;;;;;16.15;100.00;100477.25;4964977;28;20186;-76
2023/09/29 05:33:03;;;;;;;4.13;3.23;;;;;;;16.18;100.00;100478.94;4960651;28;20201;-77
2023/09/29 05:35:29;;;;;;;3.27;2.97;;;;;;;16.19;100.00;100485.00;4960238;28;20279;-76
2023/09/29 05:37:54;;;;;;;3.37;3.07;;;;;;;16.20;100.00;100473.66;4977193;28;20604;-77
2023/09/29 05:40:20;;;;;;;4.20;3.53;;;;;;;16.20;100.00;100473.66;4965793;28;20304;-76
2023/09/29 05:42:45;;;;;;;6.33;3.57;;;;;;;16.20;100.00;100468.44;4962771;28;20609;-76
2023/09/29 05:45:12;;;;;;;7.63;4.57;;;;;;;16.16;100.00;100470.28;4965350;28;20182;-76
2023/09/29 05:47:37;;;;;;;4.23;3.83;;;;;;;16.13;100.00;100473.81;4965505;28;20732;-77
2023/09/29 05:50:03;;;;;;;4.20;3.77;;;;;;;16.13;100.00;100471.22;4961102;28;20337;-77
2023/09/29 05:52:28;;;;;;;3.67;3.37;;;;;;;16.12;100.00;100482.56;4970985;28;20273;-77
2023/09/29 05:54:53;;;;;;;4.10;3.40;;;;;;;16.12;100.00;100481.72;4960376;28;20213;-77
2023/09/29 05:57:19;;;;;;;3.43;3.13;;;;;;;16.13;100.00;100489.50;4966469;28;20265;-77
2023/09/29 05:59:44;;;;;;;3.40;3.10;;;;;;;16.15;100.00;100492.06;4964009;28;20237;-77
2023/09/29 06:02:10;;;;;;;3.73;3.37;;;;;;;16.19;100.00;100498.06;4962470;28;20218;-76
2023/09/29 06:04:35;;;;;;;3.67;3.33;;;;;;;16.23;100.00;100495.31;4968134;28;20230;-77
2023/09/29 06:07:01;;;;;;;4.00;3.67;;;;;;;16.28;100.00;100497.78;4966544;28;20445;-78
2023/09/29 06:09:26;;;;;;;3.70;3.40;;;;;;;16.32;100.00;100488.97;4968028;28;20267;-78
2023/09/29 06:11:51;;;;;;;3.83;3.53;;;;;;;16.37;100.00;100494.91;4968124;28;20333;-77
2023/09/29 06:14:17;;;;;;;4.30;3.77;;;;;;;16.44;100.00;100495.59;4960975;28;20252;-77
2023/09/29 06:16:42;;;;;;;4.13;3.70;;;;;;;16.53;100.00;100491.84;4961707;28;20191;-77
2023/09/29 06:19:07;;;;;;;4.53;3.60;;;;;;;16.62;100.00;100488.94;4962566;28;20219;-76
2023/09/29 06:21:33;;;;;;;4.10;3.53;;;;;;;16.69;100.00;100498.31;4958201;28;20202;-77
2023/09/29 06:23:58;;;;;;;6.30;3.57;;;;;;;16.76;100.00;100491.97;4965473;28;20736;-76
2023/09/29 06:26:23;;;;;;;3.83;3.43;;;;;;;16.81;100.00;100504.03;4962729;28;20198;-76
2023/09/29 06:28:49;;;;;;;3.83;3.10;;;;;;;16.82;100.00;100501.38;4955333;28;20219;-76
2023/09/29 06:31:14;;;;;;;3.60;3.30;;;;;;;16.84;100.00;100496.09;4956397;28;20263;-76
2023/09/29 06:33:39;;;;;;;4.17;3.20;;;;;;;16.86;100.00;100494.31;4971446;28;20574;-76
2023/09/29 06:36:05;;;;;;;3.37;3.07;;;;;;;16.89;100.00;100492.44;4974292;28;20195;-75
2023/09/29 06:38:31;;;;;;;3.63;3.33;;;;;;;16.93;100.00;100487.97;4967895;28;20220;-76
2023/09/29 06:40:58;;;;;;;3.67;3.33;;;;;;;16.98;100.00;100485.22;4966023;28;20217;-77
2023/09/29 06:43:23;;;;;;;3.70;3.00;;;;;;;17.04;100.00;100480.66;4970996;28;20193;-77
2023/09/29 06:45:49;;;;;;;3.67;3.33;;;;;;;17.13;100.00;100487.34;4974239;28;20190;-77
2023/09/29 06:48:14;;;;;;;3.63;3.33;;;;;;;17.24;100.00;100494.84;4962703;28;20196;-77
2023/09/29 06:50:40;;;;;;;3.53;3.23;;;;;;;17.35;100.00;100491.88;4963656;28;20186;-77
2023/09/29 06:53:05;;;;;;;4.63;4.23;;;;;;;17.49;100.00;100486.13;4967051;28;20188;-77
2023/09/29 06:55:31;;;;;;;3.83;3.53;;;;;;;17.66;100.00;100491.63;4958031;28;20215;-76
2023/09/29 06:57:58;;;;;;;5.00;4.43;;;;;;;17.82;100.00;100489.34;4964617;28;20185;-78
2023/09/29 07:00:24;;;;;;;5.13;4.23;;;;;;;17.96;100.00;100488.00;4958025;28;20632;-76
2023/09/29 07:02:49;;;;;;;4.50;4.10;;;;;;;18.10;100.00;100493.59;4966738;28;20204;-77
2023/09/29 07:05:15;;;;;;;4.60;3.83;;;;;;;18.18;100.00;100495.94;4960453;28;20191;-76
2023/09/29 07:07:41;;;;;;;4.07;3.70;;;;;;;18.24;100.00;100503.53;4965561;28;20190;-76
2023/09/29 07:10:06;;;;;;;5.07;3.60;;;;;;;18.25;100.00;100513.13;4973590;28;20731;-77
2023/09/29 07:12:32;;;;;;;3.67;3.37;;;;;;;18.24;100.00;100510.56;4961779;28;20275;-77
2023/09/29 07:14:57;;;;;;;4.30;3.90;;;;;;;18.21;100.00;100497.56;4955864;28;20288;-77
2023/09/29 07:17:23;;;;;;;4.27;3.87;;;;;;;18.19;100.00;100510.75;4967772;28;20237;-77
2023/09/29 07:19:48;;;;;;;4.87;4.37;;;;;;;18.19;100.00;100512.50;4957531;28;20801;-77
2023/09/29 07:22:14;;;;;;;4.00;3.70;;;;;;;18.23;100.00;100517.56;4965955;28;20206;-77
2023/09/29 07:24:41;;;;;;;4.00;3.70;;;;;;;18.32;100.00;100518.13;4953887;28;20221;-77
2023/09/29 07:27:08;;;;;;;5.10;4.33;;;;;;;18.45;100.00;100516.75;4961105;28;20612;-76
2023/09/29 07:29:34;;;;;;;4.57;3.93;;;;;;;18.66;100.00;100516.84;4954415;28;20218;-76
2023/09/29 07:31:59;;;;;;;4.00;3.70;;;;;;;18.73;100.00;100527.03;4969235;28;20188;-76
2023/09/29 07:34:27;;;;;;;4.37;3.87;;;;;;;18.77;100.00;100513.78;4961483;28;20189;-77
2023/09/29 07:36:53;;;;;;;3.80;3.50;;;;;;;18.75;100.00;100516.47;4959472;28;20198;-77
2023/09/29 07:39:19;;;;;;;4.10;3.70;;;;;;;18.76;100.00;100518.19;4968027;28;20605;-77
2023/09/29 07:41:44;;;;;;;4.27;3.87;;;;;;;18.72;100.00;100508.72;4968213;28;20248;-77
2023/09/29 07:44:09;;;;;;;4.40;3.93;;;;;;;18.69;100.00;100512.34;4957392;28;20195;-77
2023/09/29 07:46:36;;;;;;;4.20;3.80;;;;;;;18.61;100.00;100510.94;4961187;28;20863;-77
2023/09/29 07:49:04;;;;;;;3.90;3.43;;;;;;;18.56;100.00;100509.31;4957152;28;20242;-77
2023/09/29 07:51:30;;;;;;;4.23;3.83;;;;;;;18.55;100.00;100507.63;4959166;28;20651;-77
2023/09/29 07:53:56;;;;;;;4.97;4.57;;;;;;;18.51;100.00;100521.78;4961067;28;20195;-77
2023/09/29 07:56:21;;;;;;;6.40;5.00;;;;;;;18.46;100.00;100521.09;4959293;28;20217;-77
2023/09/29 07:58:47;;;;;;;5.13;4.53;;;;;;;18.50;100.00;100514.81;4959983;28;20217;-77
2023/09/29 08:01:12;;;;;;;4.90;4.50;;;;;;;18.70;100.00;100513.19;4957259;28;20312;-77
2023/09/29 08:03:37;;;;;;;4.73;4.10;;;;;;;18.93;100.00;100511.41;4959520;28;22045;-77
2023/09/29 08:06:03;;;;;;;4.93;4.53;;;;;;;19.07;100.00;100509.13;4961594;28;20197;-76
2023/09/29 08:08:28;;;;;;;4.50;4.10;;;;;;;19.36;100.00;100506.22;4960991;28;20213;-76
2023/09/29 08:10:54;;;;;;;4.30;3.90;;;;;;;19.62;100.00;100511.19;4960198;28;20197;-77
2023/09/29 08:13:19;;;;;;;4.97;4.47;;;;;;;19.78;100.00;100516.63;4960876;28;20201;-77
2023/09/29 08:15:47;;;;;;;4.50;4.10;;;;;;;20.06;100.00;100520.66;4967528;28;20190;-76
2023/09/29 08:18:13;;;;;;;4.70;3.83;;;;;;;20.30;100.00;100515.25;4980178;28;20340;-76
2023/09/29 08:20:38;;;;;;;4.47;3.97;;;;;;;20.40;100.00;100508.63;4966316;28;20745;-76
2023/09/29 08:23:03;;;;;;;4.57;3.90;;;;;;;20.50;100.00;100508.19;4972409;28;20183;-78
2023/09/29 08:25:31;;;;;;;4.37;3.80;;;;;;;20.61;100.00;100513.81;4975539;28;20188;-77
2023/09/29 08:27:57;;;;;;;4.03;3.63;;;;;;;20.68;100.00;100517.84;4975649;28;20190;-78
2023/09/29 08:30:22;;;;;;;6.00;4.30;;;;;;;20.70;100.00;100523.03;4976386;28;20202;-76
2023/09/29 08:32:48;;;;;;;7.63;4.20;;;;;;;20.73;100.00;100514.13;4989846;28;20185;-75
2023/09/29 08:35:13;;;;;;;3.93;3.60;;;;;;;20.80;100.00;100513.81;4973416;28;20190;-76
2023/09/29 08:37:45;;;;;;;4.47;3.93;;;;;;;20.85;100.00;100511.81;4965098;28;20201;-77
2023/09/29 08:40:17;;;;;;;3.67;3.37;;;;;;;20.99;100.00;100505.88;4976477;28;20721;-77
2023/09/29 08:42:46;;;;;;;8.00;4.47;;;;;;;21.09;100.00;100516.78;4962017;28;20184;-77
2023/09/29 08:45:12;;;;;;;4.33;3.60;;;;;;;21.00;100.00;100514.63;4964369;28;20201;-77
2023/09/29 08:47:40;;;;;;;4.00;3.60;;;;;;;21.11;100.00;100517.56;4969410;28;20201;-76
2023/09/29 08:50:07;;;;;;;5.00;4.43;;;;;;;21.15;100.00;100516.50;4963133;28;20209;-77
2023/09/29 08:52:32;;;;;;;5.20;4.03;;;;;;;21.25;100.00;100521.28;4967867;28;20185;-75
2023/09/29 08:54:58;;;;;;;4.40;3.63;;;;;;;21.38;100.00;100517.09;4957805;28;20566;-77
2023/09/29 08:57:25;;;;;;;3.60;3.30;;;;;;;21.43;100.00;100522.13;4979776;28;20240;-76
2023/09/29 08:59:52;;;;;;;5.20;3.93;;;;;;;21.44;100.00;100526.47;4963213;28;20293;-77
2023/09/29 09:02:18;;;;;;;5.13;3.80;;;;;;;21.58;100.00;100523.97;4964236;28;20656;-77
2023/09/29 09:04:43;;;;;;;3.90;3.47;;;;;;;21.74;100.00;100520.59;4969255;28;20293;-76
2023/09/29 09:07:09;;;;;;;4.50;4.00;;;;;;;21.85;100.00;100525.31;4967546;28;20209;-77
2023/09/29 09:09:36;;;;;;;4.43;4.03;;;;;;;21.89;100.00;100527.69;4971980;28;20253;-77
2023/09/29 09:12:02;;;;;;;4.17;3.77;;;;;;;22.11;100.00;100526.56;4959907;28;20268;-77
2023/09/29 09:14:40;;;;;;;4.00;3.60;;;;;;;22.25;99.65;100533.72;4961447;28;20186;-77
2023/09/29 09:17:06;;;;;;;4.00;3.60;;;;;;;22.28;98.47;100523.00;4968662;28;20981;-76
2023/09/29 09:19:31;;;;;;;6.13;3.87;;;;;;;22.37;99.87;100526.94;4964791;28;20201;-76
2023/09/29 09:21:56;;;;;;;4.20;3.80;;;;;;;22.49;100.00;100522.81;4960584;28;20222;-77
2023/09/29 09:24:23;;;;;;;4.60;3.90;;;;;;;22.42;100.00;100527.56;4968820;28;20205;-76
2023/09/29 09:26:49;;;;;;;5.17;3.27;;;;;;;22.73;98.70;100528.50;4970359;28;20182;-76
2023/09/29 09:29:16;;;;;;;5.00;4.13;;;;;;;22.67;98.80;100531.47;4978779;28;20209;-76
2023/09/29 09:31:46;;;;;;;4.40;4.00;;;;;;;22.81;99.21;100521.00;4954668;28;20415;-76
2023/09/29 09:34:15;;;;;;;4.27;3.63;;;;;;;22.95;98.64;100530.78;4962213;28;20301;-76
2023/09/29 09:36:49;;;;;;;4.30;3.77;;;;;;;23.02;98.36;100518.06;4962563;28;20209;-78
2023/09/29 09:39:15;;;;;;;4.43;3.73;;;;;;;23.09;98.67;100529.97;4954856;28;20210;-76
2023/09/29 09:41:42;;;;;;;5.90;4.10;;;;;;;22.96;98.38;100526.31;4961308;28;20221;-77
2023/09/29 09:44:08;;;;;;;4.97;3.67;;;;;;;23.04;98.25;100517.97;4957225;28;20586;-75
2023/09/29 09:46:39;;;;;;;3.80;3.50;;;;;;;23.26;96.69;100517.59;4965517;28;20193;-76
2023/09/29 09:49:13;;;;;;;3.93;3.37;;;;;;;23.46;96.47;100511.13;4955827;28;20221;-76
2023/09/29 09:51:47;;;;;;;4.43;3.73;;;;;;;23.56;94.71;100522.00;4961521;28;20189;-77
2023/09/29 09:54:14;;;;;;;5.77;3.77;;;;;;;23.94;93.98;100515.34;4959351;28;20189;-78
2023/09/29 09:56:50;;;;;;;4.50;3.67;;;;;;;24.02;91.78;100513.13;4952625;28;20321;-77
2023/09/29 09:59:16;;;;;;;4.17;3.43;;;;;;;24.03;91.91;100518.28;4956026;28;20225;-80
2023/09/29 10:01:43;;;;;;;7.50;3.70;;;;;;;24.08;91.36;100512.72;4967405;28;20613;-76
2023/09/29 10:04:12;;;;;;;4.37;3.27;;;;;;;24.27;91.57;100515.06;4955713;28;20193;-76
2023/09/29 10:06:39;;;;;;;4.43;3.40;;;;;;;24.37;92.10;100515.31;4969842;28;20186;-76
2023/09/29 10:09:08;;;;;;;5.43;3.43;;;;;;;24.53;90.72;100519.63;4966777;28;20779;-75
2023/09/29 10:11:34;;;;;;;5.63;4.03;;;;;;;24.66;89.35;100513.47;4951745;28;20250;-77
2023/09/29 10:14:08;;;;;;;6.60;4.30;;;;;;;24.61;89.81;100512.06;4967970;28;20975;-76
2023/09/29 10:16:35;;;;;;;3.63;3.30;;;;;;;24.71;88.94;100515.84;4976163;28;20212;-77
2023/09/29 10:19:06;;;;;;;6.87;3.53;;;;;;;24.73;88.21;100518.41;4965032;28;20657;-76
2023/09/29 10:21:42;;;;;;;3.83;3.43;;;;;;;24.74;87.87;100517.41;4958868;28;20923;-78
2023/09/29 10:24:11;;;;;;;3.57;3.27;;;;;;;24.84;87.54;100521.19;4961704;28;20201;-78
2023/09/29 10:26:49;;;;;;;4.53;3.20;;;;;;;24.84;88.47;100521.19;4968154;28;20186;-77
2023/09/29 10:29:28;;;;;;;4.10;3.70;;;;;;;25.05;87.79;100512.75;4969319;28;20855;-77
2023/09/29 10:32:07;;;;;;;7.27;3.73;;;;;;;24.65;87.17;100522.34;4960724;28;20699;-77
2023/09/29 10:34:34;;;;;;;5.17;3.17;;;;;;;24.76;87.02;100518.19;4960146;28;20189;-77
2023/09/29 10:36:59;;;;;;;4.97;3.50;;;;;;;24.93;87.32;100512.63;4959312;28;20277;-77
2023/09/29 10:39:26;;;;;;;3.67;3.10;;;;;;;25.02;87.30;100505.88;4963636;28;20793;-76
2023/09/29 10:42:13;;;;;;;5.67;3.70;;;;;;;25.02;87.99;100503.22;4956645;28;20210;-77
2023/09/29 10:44:44;;;;;;;5.70;3.87;;;;;;;25.00;87.63;100499.00;4968423;28;20192;-78
2023/09/29 10:47:14;;;;;;;5.37;3.53;;;;;;;25.03;87.18;100506.75;4961559;28;20194;-79
2023/09/29 10:49:45;;;;;;;5.53;3.93;;;;;;;25.05;86.88;100510.09;4961274;28;20569;-78
2023/09/29 10:52:20;;;;;;;8.13;3.60;;;;;;;25.19;86.40;100510.03;4967706;28;20189;-75
2023/09/29 10:54:45;;;;;;;3.33;3.03;;;;;;;25.37;85.52;100507.97;4961123;28;20208;-76
2023/09/29 10:57:11;;;;;;;7.50;3.60;;;;;;;25.36;85.50;100510.69;4962959;28;20185;-79
2023/09/29 10:59:47;;;;;;;5.33;3.90;;;;;;;25.41;85.19;100504.16;4962158;28;20209;-76
2023/09/29 11:02:12;;;;;;;4.20;3.80;;;;;;;25.23;85.74;100503.59;4964150;28;21486;-75
2023/09/29 11:04:39;;;;;;;3.80;3.27;;;;;;;25.39;85.81;100500.75;4965827;28;20185;-77
2023/09/29 11:07:04;;;;;;;7.67;3.70;;;;;;;25.23;86.36;100493.00;4966610;28;20185;-75
2023/09/29 11:09:31;;;;;;;6.37;4.30;;;;;;;25.17;86.32;100496.06;4965617;28;20206;-76
2023/09/29 11:11:57;;;;;;;3.57;3.23;;;;;;;25.26;86.16;100489.28;4960338;28;20333;-76
2023/09/29 11:14:22;;;;;;;3.73;3.20;;;;;;;25.56;85.39;100494.34;4959172;28;20273;-77
2023/09/29 11:16:57;;;;;;;3.80;3.30;;;;;;;25.37;85.16;100483.25;4960672;28;20182;-76